Time;durP1;ratioP1;P1;durP2;ratioP2;P2;SDS_P1;SDS_P2;PMS_P1;PMS_P2;Temp;Humidity;BMP_temperature;BMP_pressure;BME280_temperature;BME280_humidity;BME280_pressure;Samples;Min_cycle;Max_cycle;Signal;HPM_P1;HPM_P2
2021/12/14 00:01:56;;;;;;;;;84.00;70.40;21.30;99.90;;;;;;5075355;28;8751;-64
2021/12/14 00:04:32;;;;;;;;;83.40;71.80;21.30;99.90;;;;;;5076719;28;8743;-64
2021/12/14 00:07:01;;;;;;;;;85.80;70.20;21.30;99.90;;;;;;5075424;28;8936;-64
2021/12/14 00:09:32;;;;;;;;;96.00;78.20;21.40;99.90;;;;;;5076552;28;8847;-65
2021/12/14 00:17:21;;;;;;;;;82.00;67.60;21.40;99.90;;;;;;5056326;28;8749;-64
2021/12/14 00:19:48;;;;;;;;;77.60;63.60;21.40;99.90;;;;;;5055430;28;8772;-64
2021/12/14 00:24:05;;;;;;;;;75.80;58.00;21.50;99.90;;;;;;5056648;28;8758;-64
2021/12/14 00:25:17;;;;;;;;;76.60;60.80;21.60;99.90;;;;;;5056979;28;8774;-62
2021/12/14 00:27:44;;;;;;;;;81.40;65.20;21.60;99.90;;;;;;5056434;28;8797;-65
2021/12/14 00:30:14;;;;;;;;;78.40;64.00;21.80;99.90;;;;;;5068262;28;9003;-65
2021/12/14 00:32:40;;;;;;;;;74.60;56.20;21.80;99.90;;;;;;5079971;28;8881;-64
2021/12/14 00:35:13;;;;;;;;;76.40;59.00;21.90;99.90;;;;;;5078685;28;9669;-65
2021/12/14 00:37:50;;;;;;;;;75.20;58.80;22.00;99.90;;;;;;5079306;28;8763;-64
2021/12/14 00:40:29;;;;;;;;;73.80;57.60;22.10;99.90;;;;;;5079843;28;8766;-64
2021/12/14 00:42:55;;;;;;;;;71.20;58.60;22.20;99.90;;;;;;5079752;28;8771;-65
2021/12/14 00:45:22;;;;;;;;;75.40;56.80;22.20;99.90;;;;;;5067953;28;8833;-64
2021/12/14 00:47:49;;;;;;;;;73.80;56.40;22.10;99.90;;;;;;5058826;28;8784;-65
2021/12/14 00:50:17;;;;;;;;;70.60;54.40;22.20;99.90;;;;;;5040482;28;8901;-64
2021/12/14 00:52:44;;;;;;;;;74.20;59.20;22.20;99.90;;;;;;5057139;28;8761;-71
2021/12/14 00:55:12;;;;;;;;;78.20;64.60;22.30;99.90;;;;;;5057930;28;8784;-71
2021/12/14 00:57:38;;;;;;;;;76.20;61.20;22.30;99.90;;;;;;5058275;28;9948;-71
2021/12/14 01:00:11;;;;;;;;;75.40;60.20;22.30;99.90;;;;;;5064725;28;8779;-68
2021/12/14 01:02:38;;;;;;;;;69.60;54.40;22.30;99.90;;;;;;5077092;28;8921;-70
2021/12/14 01:05:15;;;;;;;;;76.00;61.00;22.40;99.90;;;;;;5077425;28;8747;-72
2021/12/14 01:07:43;;;;;;;;;76.20;64.60;22.50;99.90;;;;;;5077302;28;8767;-71
2021/12/14 01:10:15;;;;;;;;;76.40;61.20;22.50;99.90;;;;;;5061642;28;8773;-71
2021/12/14 01:12:54;;;;;;;;;80.40;70.40;22.60;99.90;;;;;;5069793;28;8785;-71
2021/12/14 01:18:49;;;;;;;;;76.40;64.00;22.60;99.90;;;;;;5019453;28;9477;-70
2021/12/14 01:24:08;;;;;;;;;78.20;68.80;22.70;99.90;;;;;;5042543;28;8765;-70
2021/12/14 01:26:39;;;;;;;;;81.00;67.80;22.80;99.90;;;;;;5057599;28;8824;-71
2021/12/14 01:29:07;;;;;;;;;73.60;60.60;22.80;99.90;;;;;;5065171;28;8753;-73
2021/12/14 01:32:13;;;;;;;;;76.20;61.40;22.80;99.90;;;;;;5073681;28;8745;-75
2021/12/14 01:34:40;;;;;;;;;75.40;66.00;22.70;99.90;;;;;;5058395;28;8754;-75
2021/12/14 01:37:10;;;;;;;;;77.20;65.20;22.80;99.90;;;;;;5059031;28;8839;-74
2021/12/14 01:42:09;;;;;;;;;72.80;55.60;23.10;99.90;;;;;;5058727;28;9425;-79
2021/12/14 01:44:46;;;;;;;;;74.80;55.20;23.20;99.90;;;;;;5056587;28;8782;-73
2021/12/14 01:47:21;;;;;;;;;70.00;54.20;23.30;99.90;;;;;;5057910;28;8810;-74
2021/12/14 01:49:48;;;;;;;;;69.40;53.80;23.40;99.90;;;;;;5058638;28;8765;-74
2021/12/14 01:52:23;;;;;;;;;64.80;51.60;23.40;99.90;;;;;;5058640;28;8761;-74
2021/12/14 01:54:52;;;;;;;;;69.00;52.20;23.40;99.90;;;;;;5040505;28;8781;-76
2021/12/14 01:57:20;;;;;;;;;65.00;52.00;23.40;99.90;;;;;;5057851;28;8799;-73
2021/12/14 01:59:54;;;;;;;;;66.60;51.80;23.50;99.90;;;;;;5058523;28;8758;-72
2021/12/14 02:02:44;;;;;;;;;63.00;51.40;23.30;99.90;;;;;;5057826;28;9387;-71
2021/12/14 02:05:40;;;;;;;;;65.00;51.75;23.30;99.90;;;;;;5056769;28;8769;-70
2021/12/14 02:08:28;;;;;;;;;67.25;51.25;23.60;99.90;;;;;;5055810;28;8758;-74
2021/12/14 02:10:57;;;;;;;;;69.00;53.00;23.70;99.90;;;;;;5056721;28;8758;-70
2021/12/14 02:13:36;;;;;;;;;64.00;51.40;23.30;99.90;;;;;;5057574;28;8778;-68
2021/12/14 02:16:05;;;;;;;;;60.40;49.40;23.20;99.90;;;;;;5056429;28;8767;-69
2021/12/14 02:18:32;;;;;;;;;70.80;55.40;23.60;99.90;;;;;;5076730;28;8759;-69
2021/12/14 02:21:05;;;;;;;;;78.00;66.20;23.70;99.90;;;;;;5074767;28;8782;-68
2021/12/14 02:23:32;;;;;;;;;83.60;75.40;23.70;99.90;;;;;;5076007;28;8890;-66
2021/12/14 02:26:00;;;;;;;;;88.20;79.00;23.70;99.90;;;;;;5075275;28;8913;-65
2021/12/14 02:28:27;;;;;;;;;88.40;78.00;23.90;99.90;;;;;;5070967;28;8762;-67
2021/12/14 02:30:55;;;;;;;;;77.80;63.40;23.90;99.90;;;;;;5061740;28;8785;-68
2021/12/14 02:33:25;;;;;;;;;78.40;69.20;23.90;99.90;;;;;;5055377;28;8893;-72
2021/12/14 02:35:52;;;;;;;;;70.20;55.40;24.20;99.90;;;;;;5055710;28;8773;-71
2021/12/14 02:38:19;;;;;;;;;73.40;59.60;24.30;99.90;;;;;;5052671;28;8792;-72
2021/12/14 02:41:05;;;;;;;;;71.00;58.20;24.30;99.90;;;;;;5062701;28;8789;-72
2021/12/14 02:43:39;;;;;;;;;70.40;61.20;24.40;99.90;;;;;;5037582;28;8872;-72
2021/12/14 02:46:10;;;;;;;;;75.60;64.60;24.30;99.90;;;;;;5055120;28;8861;-73
2021/12/14 02:48:38;;;;;;;;;71.40;59.80;24.20;99.90;;;;;;5075107;28;9737;-70
2021/12/14 02:51:10;;;;;;;;;70.80;54.60;24.30;99.90;;;;;;5074672;28;8781;-72
2021/12/14 02:53:37;;;;;;;;;70.40;53.60;24.50;99.90;;;;;;5056825;28;8789;-71
2021/12/14 02:56:09;;;;;;;;;68.00;52.40;24.80;99.90;;;;;;5076902;28;9054;-73
2021/12/14 02:58:36;;;;;;;;;68.60;54.80;25.00;99.60;;;;;;5074501;28;8752;-69
2021/12/14 03:01:02;;;;;;;;;72.40;57.60;25.00;99.50;;;;;;5043184;28;8785;-71
2021/12/14 03:03:29;;;;;;;;;73.60;56.40;25.00;99.20;;;;;;5055008;28;8797;-72
2021/12/14 03:05:59;;;;;;;;;72.00;57.40;25.00;99.40;;;;;;5056925;28;8849;-72
2021/12/14 03:08:27;;;;;;;;;70.40;54.60;25.20;99.20;;;;;;5055999;28;8766;-76
2021/12/14 03:11:09;;;;;;;;;74.80;55.00;25.20;98.90;;;;;;5054226;28;8769;-73
2021/12/14 03:13:47;;;;;;;;;71.80;55.00;25.30;99.00;;;;;;5054592;28;8814;-71
2021/12/14 03:16:22;;;;;;;;;77.80;59.20;25.20;99.00;;;;;;5057809;28;8779;-71
2021/12/14 03:18:49;;;;;;;;;68.80;53.00;24.90;98.90;;;;;;5075865;28;8767;-71
2021/12/14 03:21:18;;;;;;;;;68.50;56.50;24.80;99.30;;;;;;5075448;28;8766;-73
2021/12/14 03:23:51;;;;;;;;;71.80;56.40;24.60;99.20;;;;;;5074854;28;8786;-71
2021/12/14 03:26:19;;;;;;;;;72.60;55.80;24.30;99.90;;;;;;5076719;28;9048;-69
2021/12/14 03:28:49;;;;;;;;;64.40;48.60;24.50;99.90;;;;;;5074129;28;8765;-72
2021/12/14 03:31:31;;;;;;;;;67.80;53.00;24.90;99.70;;;;;;5058751;28;8790;-75
2021/12/14 03:34:04;;;;;;;;;74.80;57.20;25.20;99.90;;;;;;5021992;28;8878;-73
2021/12/14 03:36:37;;;;;;;;;64.25;52.00;25.50;99.50;;;;;;5054018;28;8781;-73
2021/12/14 03:39:08;;;;;;;;;63.00;49.50;25.40;98.60;;;;;;5056451;28;8821;-74
2021/12/14 03:41:41;;;;;;;;;64.75;51.75;25.30;98.90;;;;;;5054485;28;8789;-72
2021/12/14 03:44:14;;;;;;;;;61.00;48.75;25.50;98.50;;;;;;5056143;28;9063;-68
2021/12/14 03:46:56;;;;;;;;;63.00;50.25;25.40;99.00;;;;;;5054587;28;8865;-67
2021/12/14 03:49:25;;;;;;;;;64.00;49.75;25.50;98.70;;;;;;5057041;28;8746;-69
2021/12/14 03:51:52;;;;;;;;;62.25;48.00;25.40;99.20;;;;;;5056441;28;8748;-71
2021/12/14 03:54:19;;;;;;;;;57.00;46.50;25.00;98.70;;;;;;5037891;28;9466;-69
2021/12/14 03:56:46;;;;;;;;;57.00;46.25;25.10;99.00;;;;;;5055979;28;8809;-70
2021/12/14 03:59:13;;;;;;;;;58.50;47.00;25.50;98.70;;;;;;5038534;28;8758;-69
2021/12/14 04:01:41;;;;;;;;;59.50;46.50;25.70;98.00;;;;;;5076207;28;9528;-69
2021/12/14 04:04:21;;;;;;;;;57.50;45.75;25.70;98.10;;;;;;5081269;28;8828;-70
2021/12/14 04:06:54;;;;;;;;;60.25;46.50;25.90;98.10;;;;;;5078944;28;8806;-69
2021/12/14 04:09:22;;;;;;;;;59.50;47.00;25.90;98.60;;;;;;5078189;28;8767;-70
2021/12/14 04:11:48;;;;;;;;;57.75;44.75;26.30;97.80;;;;;;5078541;28;9408;-70
2021/12/14 04:14:15;;;;;;;;;57.00;45.50;26.10;97.90;;;;;;5079000;28;8798;-69
2021/12/14 04:16:44;;;;;;;;;53.50;42.00;26.20;98.10;;;;;;5041543;28;8856;-67
2021/12/14 04:19:14;;;;;;;;;56.75;43.75;26.40;97.40;;;;;;5060181;28;8781;-69
2021/12/14 04:21:45;;;;;;;;;49.50;37.75;26.60;96.80;;;;;;5058687;28;8811;-68
2021/12/14 04:24:12;;;;;;;;;48.25;38.00;26.70;97.40;;;;;;5042040;28;8785;-69
2021/12/14 04:26:45;;;;;;;;;43.00;33.50;26.80;95.60;;;;;;5041635;28;8848;-69
2021/12/14 04:29:15;;;;;;;;;46.25;37.00;27.00;95.70;;;;;;5058452;28;8777;-68
2021/12/14 04:31:42;;;;;;;;;44.00;35.50;26.90;95.40;;;;;;5079337;28;8763;-69
2021/12/14 04:34:09;;;;;;;;;44.50;37.50;27.00;94.30;;;;;;5079207;28;8775;-69
2021/12/14 04:36:36;;;;;;;;;49.50;39.50;27.10;94.50;;;;;;5079339;28;8747;-72
2021/12/14 04:53:15;;;;;;;;;47.00;36.50;27.20;94.40;;;;;;5058871;28;8758;-74
2021/12/14 04:55:43;;;;;;;;;43.33;34.00;27.20;93.70;;;;;;5059695;28;8773;-72
2021/12/14 04:58:10;;;;;;;;;36.50;33.75;27.50;93.10;;;;;;5058493;28;8766;-72
2021/12/14 05:00:42;;;;;;;;;41.75;33.25;28.00;91.70;;;;;;5069258;28;8819;-76
2021/12/14 05:03:37;;;;;;;;;39.25;33.50;27.80;92.10;;;;;;5077361;28;8763;-76
2021/12/14 05:06:16;;;;;;;;;46.00;36.00;27.50;92.80;;;;;;5068654;28;8818;-72
2021/12/14 05:09:27;;;;;;;;;47.50;35.00;27.90;93.10;;;;;;5077455;28;8751;-72
2021/12/14 05:11:54;;;;;;;;;44.50;35.50;28.00;92.70;;;;;;5078406;28;8771;-74
2021/12/14 05:14:21;;;;;;;;;48.25;37.00;28.20;92.20;;;;;;5076440;28;8783;-79
2021/12/14 05:16:47;;;;;;;;;41.25;35.75;28.10;92.30;;;;;;5041339;28;9046;-73
2021/12/14 05:19:14;;;;;;;;;38.75;32.75;28.10;91.30;;;;;;5058535;28;8769;-70
2021/12/14 05:21:46;;;;;;;;;34.00;30.75;27.80;92.40;;;;;;5057430;28;8938;-70
2021/12/14 05:24:14;;;;;;;;;37.25;33.25;28.10;91.60;;;;;;5057731;28;8785;-70
2021/12/14 05:26:41;;;;;;;;;35.75;32.50;28.20;91.10;;;;;;5057099;28;8870;-71
2021/12/14 05:29:10;;;;;;;;;37.75;32.75;28.20;90.90;;;;;;5041456;28;8766;-71
2021/12/14 05:31:47;;;;;;;;;41.75;33.50;28.30;90.60;;;;;;5073300;28;8799;-70
2021/12/14 05:34:14;;;;;;;;;33.00;30.25;28.50;90.60;;;;;;5057782;28;8755;-71
2021/12/14 05:36:41;;;;;;;;;41.00;33.25;28.90;88.80;;;;;;5058618;28;8773;-71
2021/12/14 05:44:37;;;;;;;;;31.50;30.00;28.90;89.00;;;;;;5061216;28;9267;-70
2021/12/14 05:47:12;;;;;;;;;35.25;30.75;28.90;89.10;;;;;;5077042;28;8798;-72
2021/12/14 05:49:44;;;;;;;;;31.75;29.00;28.90;89.30;;;;;;5060838;28;8747;-71
2021/12/14 05:52:30;;;;;;;;;30.00;29.50;29.20;89.30;;;;;;5078381;28;8775;-73
2021/12/14 05:54:56;;;;;;;;;30.00;26.00;29.40;86.80;;;;;;5078442;28;8736;-72
2021/12/14 05:57:25;;;;;;;;;29.80;26.60;29.50;86.60;;;;;;5077008;28;8771;-71
2021/12/14 05:59:52;;;;;;;;;32.00;28.25;29.40;86.50;;;;;;5070977;28;8859;-69
2021/12/14 06:02:23;;;;;;;;;30.00;28.00;29.30;86.20;;;;;;5040175;28;8912;-69
2021/12/14 06:04:52;;;;;;;;;34.50;30.25;29.10;86.50;;;;;;5058496;28;8750;-71
2021/12/14 06:07:19;;;;;;;;;28.00;24.00;28.60;86.80;;;;;;5040780;28;8796;-71
2021/12/14 06:09:48;;;;;;;;;28.00;27.25;28.50;86.50;;;;;;5056116;28;8762;-75
2021/12/14 06:12:20;;;;;;;;;27.25;26.25;29.20;84.90;;;;;;5040391;28;8750;-75
2021/12/14 06:14:55;;;;;;;;;28.00;24.50;29.40;85.20;;;;;;5060092;28;8782;-77
2021/12/14 06:17:29;;;;;;;;;21.50;19.50;29.30;84.60;;;;;;5076778;28;8771;-76
2021/12/14 06:20:19;;;;;;;;;27.00;26.25;29.20;85.60;;;;;;5076952;28;9396;-70
2021/12/14 06:22:47;;;;;;;;;25.50;24.50;29.20;85.20;;;;;;5067951;28;8755;-71
2021/12/14 06:25:16;;;;;;;;;22.20;21.00;29.40;84.90;;;;;;5077293;28;8762;-71
2021/12/14 06:27:44;;;;;;;;;15.75;12.00;29.70;82.80;;;;;;5076248;28;8971;-72
2021/12/14 06:30:19;;;;;;;;;25.50;23.50;29.60;83.00;;;;;;5066867;28;8806;-70
2021/12/14 06:32:52;;;;;;;;;30.00;26.50;29.70;83.30;;;;;;5055547;28;8818;-71
2021/12/14 06:35:32;;;;;;;;;27.00;20.75;28.80;84.10;;;;;;5055692;28;8819;-72
2021/12/14 06:38:28;;;;;;;;;30.00;28.25;28.80;85.70;;;;;;5055212;28;8758;-73
2021/12/14 06:40:57;;;;;;;;;28.25;24.25;29.20;84.10;;;;;;5055685;28;8749;-73
2021/12/14 06:43:32;;;;;;;;;26.00;21.75;29.30;82.50;;;;;;5056435;28;8785;-72
2021/12/14 06:46:03;;;;;;;;;27.00;21.50;29.10;83.50;;;;;;5057029;28;8817;-72
2021/12/14 06:48:38;;;;;;;;;29.25;27.75;29.00;84.50;;;;;;5022634;28;8799;-71
2021/12/14 06:51:06;;;;;;;;;31.00;26.00;28.60;84.30;;;;;;5059796;28;8812;-72
2021/12/14 06:53:33;;;;;;;;;28.50;26.50;28.80;84.30;;;;;;5058747;28;8827;-74
2021/12/14 06:56:01;;;;;;;;;30.25;27.50;29.10;83.70;;;;;;5055271;28;8804;-70
2021/12/14 06:58:37;;;;;;;;;24.50;24.50;29.30;84.00;;;;;;5055056;28;8828;-76
2021/12/14 07:01:04;;;;;;;;;28.25;27.00;29.20;83.60;;;;;;5072544;28;8779;-72
2021/12/14 07:03:47;;;;;;;;;25.75;22.00;28.70;86.10;;;;;;5076963;28;8770;-72
2021/12/14 07:06:25;;;;;;;;;25.00;23.75;28.60;85.50;;;;;;5075929;28;8824;-72
2021/12/14 07:08:52;;;;;;;;;24.50;22.00;29.00;83.50;;;;;;5076051;28;8758;-71
2021/12/14 07:11:23;;;;;;;;;28.20;25.00;29.40;82.90;;;;;;5076322;28;8920;-70
2021/12/14 07:13:50;;;;;;;;;22.25;19.00;29.50;82.50;;;;;;5077362;28;8755;-70
2021/12/14 07:16:24;;;;;;;;;23.50;23.00;29.50;82.40;;;;;;5060175;28;8784;-69
2021/12/14 07:18:52;;;;;;;;;24.75;24.75;29.60;82.10;;;;;;5056390;28;8848;-70
2021/12/14 07:21:36;;;;;;;;;24.00;22.50;29.20;82.80;;;;;;5055752;28;8773;-70
2021/12/14 07:24:28;;;;;;;;;27.75;24.50;29.10;83.90;;;;;;5057287;28;8766;-68
2021/12/14 07:27:13;;;;;;;;;29.75;27.75;29.20;83.90;;;;;;5039627;28;8816;-69
2021/12/14 07:29:40;;;;;;;;;25.25;24.50;29.50;84.40;;;;;;5061094;28;8775;-70
2021/12/14 07:32:07;;;;;;;;;26.25;23.75;29.50;81.90;;;;;;5074915;28;8782;-71
2021/12/14 07:34:34;;;;;;;;;25.50;25.25;29.40;83.00;;;;;;5076303;28;8796;-71
2021/12/14 07:37:00;;;;;;;;;31.25;27.75;29.00;84.20;;;;;;5077046;28;8751;-70
2021/12/14 07:39:27;;;;;;;;;28.25;26.75;28.80;84.90;;;;;;5077000;28;8763;-66
2021/12/14 07:42:02;;;;;;;;;28.25;25.00;29.10;83.30;;;;;;5074851;28;8889;-68
2021/12/14 07:44:34;;;;;;;;;28.50;26.75;29.40;82.20;;;;;;5073603;28;8759;-73
2021/12/14 07:47:08;;;;;;;;;27.25;25.00;29.60;81.90;;;;;;5056212;28;8892;-73
2021/12/14 07:49:41;;;;;;;;;33.00;27.00;29.60;82.10;;;;;;5038754;28;8804;-73
2021/12/14 07:52:14;;;;;;;;;31.50;28.00;29.70;80.90;;;;;;5055246;28;8778;-72
2021/12/14 07:55:10;;;;;;;;;28.25;27.25;29.60;81.30;;;;;;5056129;28;9035;-74
2021/12/14 07:57:37;;;;;;;;;31.50;26.75;29.20;82.30;;;;;;5043447;28;8798;-75
2021/12/14 08:00:08;;;;;;;;;31.25;29.50;29.50;81.30;;;;;;5063434;28;8795;-74
2021/12/14 08:02:40;;;;;;;;;26.75;24.75;29.80;81.50;;;;;;5073997;28;8739;-63
2021/12/14 08:05:17;;;;;;;;;31.50;30.00;29.90;81.60;;;;;;5076965;28;8797;-63
2021/12/14 08:08:10;;;;;;;;;29.50;25.25;30.10;81.70;;;;;;5076734;28;8797;-63
2021/12/14 08:10:41;;;;;;;;;24.50;23.25;30.10;81.00;;;;;;5076891;28;8735;-68
2021/12/14 08:13:16;;;;;;;;;26.50;24.75;30.30;80.50;;;;;;5059481;28;8763;-67
2021/12/14 08:15:50;;;;;;;;;33.00;27.25;30.40;79.60;;;;;;5063663;28;8888;-64
2021/12/14 08:18:20;;;;;;;;;25.00;23.00;30.10;80.90;;;;;;5056639;28;8754;-64
2021/12/14 08:21:00;;;;;;;;;26.25;25.75;29.60;81.50;;;;;;5055910;28;8761;-64
2021/12/14 08:23:31;;;;;;;;;23.75;21.00;29.70;81.80;;;;;;5055229;28;8761;-64
2021/12/14 08:26:08;;;;;;;;;21.00;21.00;29.70;81.90;;;;;;5055153;28;8746;-64
2021/12/14 08:28:48;;;;;;;;;31.25;27.25;29.80;81.30;;;;;;5056420;28;8746;-64
2021/12/14 08:31:15;;;;;;;;;26.50;24.25;29.70;80.20;;;;;;5073463;28;8759;-65
2021/12/14 08:33:42;;;;;;;;;30.50;28.00;30.00;79.90;;;;;;5074986;28;8763;-64
2021/12/14 08:36:11;;;;;;;;;30.75;26.50;30.40;78.70;;;;;;5075194;28;8890;-64
2021/12/14 08:38:37;;;;;;;;;29.00;27.50;29.90;80.90;;;;;;5074942;28;8779;-65
2021/12/14 08:41:16;;;;;;;;;25.75;25.75;30.10;79.20;;;;;;5074465;28;8787;-66
2021/12/14 08:43:50;;;;;;;;;30.00;25.50;30.30;79.20;;;;;;5073706;28;8763;-66
2021/12/14 08:46:20;;;;;;;;;28.25;28.25;30.50;78.20;;;;;;5057590;28;8850;-65
2021/12/14 08:48:50;;;;;;;;;24.25;24.00;30.80;77.30;;;;;;5054925;28;8756;-66
2021/12/14 08:51:22;;;;;;;;;30.25;26.00;30.70;77.40;;;;;;5058524;28;8761;-66
2021/12/14 08:53:56;;;;;;;;;28.25;23.00;30.50;77.50;;;;;;5060055;28;8752;-66
2021/12/14 08:56:24;;;;;;;;;25.25;24.00;30.40;77.90;;;;;;5059919;28;8785;-66
2021/12/14 08:58:51;;;;;;;;;27.00;25.50;30.30;77.90;;;;;;5058103;28;8756;-66
2021/12/14 09:01:26;;;;;;;;;26.00;24.75;30.10;78.00;;;;;;5076887;28;8762;-65
2021/12/14 09:04:06;;;;;;;;;30.50;28.00;30.30;78.70;;;;;;5078469;28;8747;-66
2021/12/14 09:06:38;;;;;;;;;29.50;29.00;30.40;78.30;;;;;;5078152;28;8786;-66
2021/12/14 09:09:09;;;;;;;;;31.00;26.00;30.50;79.80;;;;;;5079579;28;8759;-67
2021/12/14 09:11:37;;;;;;;;;32.75;27.00;30.60;78.50;;;;;;5079254;28;8763;-66
2021/12/14 09:14:09;;;;;;;;;29.75;27.25;30.70;77.70;;;;;;5078142;28;8757;-66
2021/12/14 09:16:36;;;;;;;;;31.00;29.50;30.60;76.70;;;;;;5058927;28;8778;-66
2021/12/14 09:19:08;;;;;;;;;31.00;27.25;30.50;78.00;;;;;;5059574;28;8781;-66
2021/12/14 09:21:40;;;;;;;;;27.50;26.50;30.50;79.00;;;;;;5057849;28;8887;-66
2021/12/14 09:24:10;;;;;;;;;31.00;28.50;30.50;78.30;;;;;;5058165;28;8765;-66
2021/12/14 09:26:38;;;;;;;;;23.25;21.50;30.40;77.70;;;;;;5057777;28;8801;-66
2021/12/14 09:29:06;;;;;;;;;34.75;30.25;30.30;79.50;;;;;;5059340;28;8754;-66
2021/12/14 09:31:36;;;;;;;;;31.00;28.25;30.30;79.20;;;;;;5078209;28;8820;-66
2021/12/14 09:34:03;;;;;;;;;25.00;24.50;30.40;77.80;;;;;;5078388;28;8752;-67
2021/12/14 09:36:30;;;;;;;;;23.00;19.50;30.30;77.50;;;;;;5078766;28;8751;-66
2021/12/14 09:39:04;;;;;;;;;34.50;31.25;30.40;78.60;;;;;;5079029;28;8766;-66
2021/12/14 09:41:33;;;;;;;;;32.25;29.25;30.40;79.10;;;;;;5079031;28;8766;-66
2021/12/14 09:44:05;;;;;;;;;36.50;31.25;30.40;79.40;;;;;;5061875;28;8751;-66
2021/12/14 09:46:31;;;;;;;;;32.00;30.25;30.50;78.70;;;;;;5057193;28;8833;-67
2021/12/14 09:49:01;;;;;;;;;32.25;29.00;30.40;78.00;;;;;;5057970;28;8868;-67
2021/12/14 09:51:34;;;;;;;;;35.00;29.25;30.30;78.80;;;;;;5057713;28;8773;-66
2021/12/14 09:54:03;;;;;;;;;32.75;30.50;30.30;78.70;;;;;;5057480;28;8781;-66
2021/12/14 09:56:33;;;;;;;;;33.25;29.50;30.30;79.00;;;;;;5058466;28;8780;-66
2021/12/14 09:59:00;;;;;;;;;34.00;30.00;30.30;78.20;;;;;;5058663;28;8839;-66
2021/12/14 10:01:33;;;;;;;;;33.75;31.25;30.30;78.00;;;;;;5076522;28;8781;-66
2021/12/14 10:04:05;;;;;;;;;33.25;28.00;30.30;78.40;;;;;;5078309;28;8739;-67
2021/12/14 10:06:32;;;;;;;;;33.75;31.00;30.30;78.80;;;;;;5078142;28;8791;-66
2021/12/14 10:09:05;;;;;;;;;31.50;30.25;30.20;79.10;;;;;;5078645;28;8775;-67
2021/12/14 10:11:42;;;;;;;;;34.50;30.25;30.10;78.90;;;;;;5078096;28;8767;-67
2021/12/14 10:14:10;;;;;;;;;35.25;31.75;30.10;78.60;;;;;;5078317;28;8771;-66
2021/12/14 10:16:36;;;;;;;;;33.75;29.75;30.00;78.50;;;;;;5056561;28;8746;-66
2021/12/14 10:19:13;;;;;;;;;35.25;31.25;30.00;78.90;;;;;;5057418;28;9481;-66
2021/12/14 10:21:52;;;;;;;;;41.25;32.00;29.90;79.40;;;;;;5056873;28;8765;-66
2021/12/14 10:24:18;;;;;;;;;33.00;28.00;29.80;80.80;;;;;;5058299;28;8769;-64
2021/12/14 10:26:54;;;;;;;;;35.75;32.25;29.80;81.70;;;;;;5056572;28;8790;-66
2021/12/14 10:29:20;;;;;;;;;34.75;30.75;29.70;82.30;;;;;;5058137;28;8761;-66
2021/12/14 10:31:53;;;;;;;;;39.00;33.25;29.60;83.50;;;;;;5077838;28;8853;-66
2021/12/14 10:34:24;;;;;;;;;37.50;32.75;29.50;83.80;;;;;;5078212;28;8761;-65
2021/12/14 10:37:03;;;;;;;;;39.00;33.00;29.30;85.80;;;;;;5076637;28;8758;-66
2021/12/14 10:42:53;;;;;;;;;42.25;32.25;28.90;88.20;;;;;;5076606;28;8755;-66
2021/12/14 10:45:24;;;;;;;;;36.75;31.75;28.80;89.70;;;;;;5067361;28;8947;-66
2021/12/14 10:47:50;;;;;;;;;40.75;35.00;28.70;90.00;;;;;;5055833;28;8790;-67
2021/12/14 10:50:20;;;;;;;;;42.50;34.50;28.70;90.30;;;;;;5057561;28;8772;-65
2021/12/14 10:52:47;;;;;;;;;46.75;35.25;28.50;90.70;;;;;;5057394;28;8754;-66
2021/12/14 10:55:47;;;;;;;;;39.25;33.25;28.40;91.10;;;;;;5063044;28;8769;-66
2021/12/14 10:58:14;;;;;;;;;42.25;35.50;28.30;91.00;;;;;;5056332;28;8766;-66
2021/12/14 11:00:43;;;;;;;;;39.75;33.50;28.30;91.10;;;;;;5068214;28;8795;-66
2021/12/14 11:03:16;;;;;;;;;46.25;36.50;28.20;91.30;;;;;;5077129;28;8763;-66
2021/12/14 11:05:46;;;;;;;;;51.00;40.00;28.20;91.10;;;;;;5077341;28;8816;-66
2021/12/14 11:08:33;;;;;;;;;49.75;39.25;28.10;90.90;;;;;;5076057;28;8756;-66
2021/12/14 11:10:59;;;;;;;;;51.25;41.75;28.10;90.80;;;;;;5077419;28;8770;-66
2021/12/14 11:13:26;;;;;;;;;50.75;37.25;28.10;90.60;;;;;;5076446;28;8826;-66
2021/12/14 11:15:54;;;;;;;;;49.25;39.25;28.10;90.60;;;;;;5063539;28;8750;-66
2021/12/14 11:18:23;;;;;;;;;49.25;40.50;28.00;90.80;;;;;;5055566;28;8769;-66
2021/12/14 11:21:07;;;;;;;;;50.00;39.75;27.90;91.00;;;;;;5055611;28;8777;-66
2021/12/14 11:23:42;;;;;;;;;54.50;41.00;27.90;91.40;;;;;;5056945;28;8834;-66
2021/12/14 11:26:14;;;;;;;;;52.75;42.25;27.80;91.40;;;;;;5056913;28;8761;-66
2021/12/14 11:28:48;;;;;;;;;51.00;40.50;27.60;92.30;;;;;;5056796;28;8754;-66
2021/12/14 11:31:18;;;;;;;;;49.75;38.50;27.50;93.20;;;;;;5074247;28;8771;-66
2021/12/14 11:33:51;;;;;;;;;52.75;41.75;27.40;93.50;;;;;;5075346;28;8751;-66
2021/12/14 11:36:31;;;;;;;;;53.25;40.75;27.40;92.60;;;;;;5076818;28;8840;-65
2021/12/14 11:39:25;;;;;;;;;53.50;41.75;27.30;92.70;;;;;;5075609;28;8759;-66
2021/12/14 11:41:54;;;;;;;;;51.50;40.50;27.10;93.00;;;;;;5076723;28;8817;-66
2021/12/14 11:44:32;;;;;;;;;55.50;43.75;27.10;93.50;;;;;;5074890;28;8747;-65
2021/12/14 11:50:06;;;;;;;;;57.25;46.00;26.90;93.70;;;;;;5056839;28;8761;-66
2021/12/14 11:52:42;;;;;;;;;61.50;45.75;26.80;93.80;;;;;;5056569;28;8765;-65
2021/12/14 11:55:21;;;;;;;;;60.75;46.25;26.80;93.10;;;;;;5057322;28;8762;-66
2021/12/14 11:57:48;;;;;;;;;60.75;47.00;26.80;93.00;;;;;;5055630;28;8861;-66
2021/12/14 12:00:18;;;;;;;;;64.40;51.60;26.70;93.10;;;;;;5063729;28;8751;-66
2021/12/14 12:02:45;;;;;;;;;60.60;47.40;26.40;93.60;;;;;;5076015;28;8763;-66
2021/12/14 12:05:22;;;;;;;;;86.60;76.00;26.20;94.70;;;;;;5058240;28;8739;-66
2021/12/14 12:10:47;;;;;;;;;87.80;76.20;26.40;94.20;;;;;;5076035;28;8735;-66
2021/12/14 12:13:14;;;;;;;;;91.00;84.20;26.50;94.30;;;;;;5077393;28;8739;-66
2021/12/14 12:15:42;;;;;;;;;91.60;80.40;26.60;94.20;;;;;;5063821;28;8808;-66
2021/12/14 12:18:09;;;;;;;;;89.00;78.80;26.50;94.50;;;;;;5055046;28;8776;-66
2021/12/14 12:20:41;;;;;;;;;79.00;68.60;26.60;94.80;;;;;;5056240;28;8773;-66
2021/12/14 12:23:08;;;;;;;;;74.20;56.00;26.40;95.30;;;;;;5039452;28;8754;-66
2021/12/14 12:25:45;;;;;;;;;77.60;63.80;26.40;95.90;;;;;;5051146;28;8734;-66
2021/12/14 12:28:28;;;;;;;;;73.60;59.00;26.40;96.10;;;;;;5060557;28;8792;-66
2021/12/14 12:31:14;;;;;;;;;73.00;55.40;26.40;96.40;;;;;;5074476;28;8823;-65
2021/12/14 12:33:57;;;;;;;;;68.00;53.80;26.30;95.50;;;;;;5079817;28;8759;-66
2021/12/14 12:36:35;;;;;;;;;70.00;53.80;26.40;95.40;;;;;;5078766;28;8809;-65
2021/12/14 12:39:08;;;;;;;;;63.75;48.75;26.30;95.70;;;;;;5079118;28;8767;-66
2021/12/14 12:41:38;;;;;;;;;72.20;57.60;26.30;95.10;;;;;;5080272;28;8748;-66
2021/12/14 12:44:16;;;;;;;;;73.80;57.80;26.20;95.20;;;;;;5078801;28;8782;-66
2021/12/14 12:46:52;;;;;;;;;83.40;69.80;26.20;95.10;;;;;;5058347;28;8858;-66
2021/12/14 12:49:31;;;;;;;;;87.60;75.40;26.10;95.60;;;;;;5059332;28;8753;-64
2021/12/14 12:52:20;;;;;;;;;77.40;64.60;26.20;96.20;;;;;;5058559;28;8738;-66
2021/12/14 12:54:57;;;;;;;;;75.80;58.60;26.10;96.10;;;;;;5059793;28;8786;-66
2021/12/14 12:57:36;;;;;;;;;74.20;58.60;26.10;96.10;;;;;;5059421;28;8782;-66
2021/12/14 13:00:40;;;;;;;;;79.00;57.60;26.00;96.10;;;;;;5066623;28;8790;-66
2021/12/14 13:03:15;;;;;;;;;73.00;54.00;26.00;96.10;;;;;;5079427;28;8778;-66
2021/12/14 13:05:45;;;;;;;;;72.00;55.80;26.00;95.80;;;;;;5078270;28;9408;-66
2021/12/14 13:08:18;;;;;;;;;72.00;56.00;26.00;96.30;;;;;;5079243;28;8763;-66
2021/12/14 13:10:57;;;;;;;;;79.20;68.00;26.00;96.70;;;;;;5079502;28;8806;-66
2021/12/14 13:13:45;;;;;;;;;82.20;71.00;26.00;96.60;;;;;;5080249;28;8798;-67
2021/12/14 13:16:15;;;;;;;;;88.60;77.20;26.00;96.50;;;;;;5063027;28;8884;-66
2021/12/14 13:18:43;;;;;;;;;88.40;77.20;26.00;96.60;;;;;;5059594;28;8840;-66
2021/12/14 13:21:10;;;;;;;;;92.20;77.40;26.00;96.20;;;;;;5058002;28;8782;-66
2021/12/14 13:23:42;;;;;;;;;94.60;81.40;26.00;96.40;;;;;;5059196;28;8790;-66
2021/12/14 13:26:21;;;;;;;;;94.20;78.80;25.90;96.40;;;;;;5059151;28;8753;-66
2021/12/14 13:28:48;;;;;;;;;91.00;75.80;25.70;97.00;;;;;;5058698;28;8761;-66
2021/12/14 13:31:40;;;;;;;;;85.60;74.20;25.50;97.00;;;;;;5076528;28;8771;-66
2021/12/14 13:34:10;;;;;;;;;92.00;77.40;25.40;97.20;;;;;;5079613;28;8759;-66
2021/12/14 13:36:37;;;;;;;;;89.40;79.20;25.40;96.90;;;;;;5077903;28;8771;-66
2021/12/14 13:39:05;;;;;;;;;77.40;67.80;25.40;97.00;;;;;;5078400;28;9461;-66
2021/12/14 13:41:57;;;;;;;;;93.00;78.80;25.50;97.00;;;;;;5078582;28;8755;-66
2021/12/14 13:44:27;;;;;;;;;83.60;73.20;25.40;97.00;;;;;;5046302;28;8875;-66
2021/12/14 13:46:54;;;;;;;;;85.00;74.00;25.50;97.00;;;;;;5058339;28;8900;-66